Time;durP1;ratioP1;P1;durP2;ratioP2;P2;SDS_P1;SDS_P2;PMS_P1;PMS_P2;Temp;Humidity;BMP_temperature;BMP_pressure;BME280_temperature;BME280_humidity;BME280_pressure;Samples;Min_cycle;Max_cycle;Signal;HPM_P1;HPM_P2
2024/01/06 00:00:27;;;;;;;3.60;0.93;;;28.60;72.60;;;;;;5055963;28;20043;-73
2024/01/06 00:02:54;;;;;;;4.07;0.70;;;28.90;70.30;;;;;;5053961;28;20033;-71
2024/01/06 00:05:21;;;;;;;6.85;0.98;;;29.00;69.60;;;;;;5061533;28;20025;-70
2024/01/06 00:07:49;;;;;;;7.47;0.80;;;28.30;70.10;;;;;;5055851;28;20044;-71
2024/01/06 00:10:17;;;;;;;5.40;1.35;;;27.70;70.60;;;;;;5042104;28;20452;-71
2024/01/06 00:12:45;;;;;;;7.18;1.33;;;27.30;71.70;;;;;;5058313;28;20045;-73
2024/01/06 00:15:12;;;;;;;5.05;1.00;;;26.90;72.00;;;;;;5059014;28;20056;-71
2024/01/06 00:17:40;;;;;;;6.78;0.80;;;26.90;73.60;;;;;;5057644;28;20025;-72
2024/01/06 00:20:08;;;;;;;9.80;1.08;;;27.90;72.00;;;;;;5059818;28;20464;-72
2024/01/06 00:22:35;;;;;;;4.70;0.73;;;28.80;74.60;;;;;;5058855;28;20049;-71
2024/01/06 00:25:03;;;;;;;5.57;1.02;;;29.50;71.10;;;;;;5058621;28;20041;-71
2024/01/06 00:27:30;;;;;;;4.78;0.65;;;30.10;65.70;;;;;;5058147;28;20378;-70
2024/01/06 00:29:58;;;;;;;6.78;0.98;;;30.20;64.90;;;;;;5056338;28;20135;-70
2024/01/06 00:32:25;;;;;;;4.32;0.82;;;30.20;64.20;;;;;;5056527;28;20025;-70
2024/01/06 00:34:52;;;;;;;7.03;1.20;;;29.50;64.50;;;;;;5055939;28;20029;-71
2024/01/06 00:37:19;;;;;;;8.30;1.00;;;29.20;64.20;;;;;;5058744;28;20029;-71
2024/01/06 00:39:47;;;;;;;4.65;0.90;;;29.10;64.50;;;;;;5055963;28;20056;-69
2024/01/06 00:42:14;;;;;;;6.55;1.10;;;29.20;64.80;;;;;;5057583;28;20027;-71
2024/01/06 00:44:42;;;;;;;3.92;0.85;;;29.40;65.00;;;;;;5054380;28;20025;-71
2024/01/06 00:47:09;;;;;;;5.15;0.90;;;28.90;65.10;;;;;;5056522;28;20098;-71
2024/01/06 00:49:36;;;;;;;9.25;1.05;;;28.20;65.30;;;;;;5060899;28;20020;-71
2024/01/06 00:52:04;;;;;;;7.40;1.20;;;27.70;66.90;;;;;;5057748;28;20025;-72
2024/01/06 00:54:31;;;;;;;6.72;1.10;;;27.60;67.40;;;;;;5053751;28;20063;-72
2024/01/06 00:56:59;;;;;;;4.25;1.00;;;27.90;68.40;;;;;;5035528;28;20040;-72
2024/01/06 00:59:27;;;;;;;5.43;0.93;;;28.20;68.20;;;;;;5052725;28;20071;-72
2024/01/06 01:01:54;;;;;;;7.53;1.65;;;28.10;67.70;;;;;;5046533;28;20075;-71
2024/01/06 01:04:21;;;;;;;5.55;1.00;;;27.90;67.60;;;;;;5053206;28;20040;-72
2024/01/06 01:06:49;;;;;;;4.43;1.02;;;27.70;69.00;;;;;;5049718;28;20470;-72
2024/01/06 01:09:17;;;;;;;8.45;1.20;;;27.60;69.10;;;;;;5048875;28;20466;-72
2024/01/06 01:11:44;;;;;;;5.95;1.10;;;27.50;70.00;;;;;;5047372;28;20019;-72
2024/01/06 01:14:11;;;;;;;9.07;1.02;;;27.30;69.50;;;;;;5046296;28;20073;-72
2024/01/06 01:16:39;;;;;;;4.45;0.95;;;27.20;67.90;;;;;;5049485;28;20021;-72
2024/01/06 01:19:06;;;;;;;10.73;1.67;;;27.00;68.30;;;;;;5033829;28;20390;-72
2024/01/06 01:21:33;;;;;;;5.32;1.30;;;27.10;70.20;;;;;;5047520;28;20021;-72
2024/01/06 01:24:02;;;;;;;8.13;1.08;;;27.50;68.90;;;;;;5050282;28;20035;-72
2024/01/06 01:26:29;;;;;;;7.00;1.15;;;27.20;67.90;;;;;;5053384;28;20033;-72
2024/01/06 01:28:57;;;;;;;6.93;0.90;;;27.10;69.30;;;;;;5051476;28;20037;-72
2024/01/06 01:31:24;;;;;;;5.53;0.82;;;27.60;68.90;;;;;;5047581;28;20482;-72
2024/01/06 01:33:51;;;;;;;8.27;0.88;;;27.40;68.80;;;;;;5054084;28;20071;-71
2024/01/06 01:36:19;;;;;;;4.53;0.80;;;27.50;66.70;;;;;;5052235;28;20024;-71
2024/01/06 01:38:46;;;;;;;5.95;1.05;;;27.20;67.80;;;;;;5056790;28;20379;-71
2024/01/06 01:41:13;;;;;;;6.35;1.05;;;27.50;67.20;;;;;;5049044;28;20020;-72
2024/01/06 01:43:41;;;;;;;8.57;1.20;;;28.00;66.90;;;;;;5052352;28;20033;-72
2024/01/06 01:46:08;;;;;;;10.10;1.30;;;28.20;65.70;;;;;;5060672;28;20090;-72
2024/01/06 01:48:36;;;;;;;5.30;0.93;;;28.60;67.80;;;;;;5055762;28;20108;-72
2024/01/06 01:51:03;;;;;;;7.97;0.98;;;28.70;66.80;;;;;;5056706;28;20036;-72
2024/01/06 01:53:32;;;;;;;4.60;1.00;;;28.70;65.40;;;;;;5055249;28;20471;-74
2024/01/06 01:55:59;;;;;;;5.70;0.98;;;28.50;66.20;;;;;;5054832;28;20025;-73
2024/01/06 01:58:26;;;;;;;5.03;0.82;;;28.40;68.50;;;;;;5057523;28;20033;-71
2024/01/06 02:00:54;;;;;;;7.72;1.45;;;28.90;68.70;;;;;;5058493;28;20052;-74
2024/01/06 02:03:24;;;;;;;3.50;0.80;;;28.80;65.40;;;;;;5056752;28;20469;-74
2024/01/06 02:05:52;;;;;;;4.82;0.82;;;28.80;66.50;;;;;;5056291;28;20043;-74
2024/01/06 02:08:19;;;;;;;3.60;1.10;;;28.80;63.90;;;;;;5053062;28;20453;-71
2024/01/06 02:10:46;;;;;;;8.88;1.58;;;29.50;68.80;;;;;;5052027;28;20400;-72
2024/01/06 02:13:14;;;;;;;5.05;1.30;;;30.20;67.50;;;;;;5056317;28;20033;-72
2024/01/06 02:15:41;;;;;;;7.40;1.13;;;30.10;66.20;;;;;;5058271;28;20347;-71
2024/01/06 02:18:09;;;;;;;7.15;1.50;;;29.80;67.50;;;;;;5056070;28;20067;-71
2024/01/06 02:20:37;;;;;;;7.75;1.42;;;29.00;65.90;;;;;;5054767;28;20017;-72
2024/01/06 02:23:04;;;;;;;5.88;0.93;;;28.40;67.40;;;;;;5056284;28;20498;-72
2024/01/06 02:25:33;;;;;;;10.90;1.08;;;28.40;68.80;;;;;;5049108;28;20029;-72
2024/01/06 02:28:00;;;;;;;8.73;1.02;;;27.90;68.00;;;;;;5055982;28;20037;-75
2024/01/06 02:30:27;;;;;;;12.18;1.45;;;27.80;68.90;;;;;;5056581;28;20037;-73
2024/01/06 02:32:55;;;;;;;9.18;1.20;;;27.80;70.40;;;;;;5028849;28;20508;-73
2024/01/06 02:35:22;;;;;;;8.18;1.17;;;27.90;71.10;;;;;;5051783;28;20064;-73
2024/01/06 02:37:53;;;;;;;7.43;1.20;;;28.20;71.20;;;;;;5049025;28;20033;-73
2024/01/06 02:40:20;;;;;;;8.85;1.50;;;28.20;71.10;;;;;;5044294;28;20111;-72
2024/01/06 02:42:48;;;;;;;7.30;1.58;;;28.40;71.30;;;;;;5032525;28;20033;-73
2024/01/06 02:45:15;;;;;;;11.23;1.75;;;28.80;72.30;;;;;;5045524;28;20147;-72
2024/01/06 02:47:42;;;;;;;6.28;1.45;;;29.40;71.50;;;;;;5046446;28;20041;-72
2024/01/06 02:50:10;;;;;;;7.18;1.63;;;30.30;71.10;;;;;;5045678;28;20033;-72
2024/01/06 02:52:37;;;;;;;4.95;0.95;;;30.40;68.90;;;;;;5041894;28;20029;-73
2024/01/06 02:55:05;;;;;;;6.72;1.30;;;30.30;67.90;;;;;;5046995;28;20033;-73
2024/01/06 02:57:32;;;;;;;6.80;1.13;;;30.10;68.00;;;;;;5031407;28;20078;-72
2024/01/06 03:00:00;;;;;;;6.40;1.35;;;30.20;68.50;;;;;;5025646;28;20525;-72
2024/01/06 03:02:27;;;;;;;8.05;1.35;;;30.60;67.80;;;;;;5037494;28;20566;-72
2024/01/06 03:04:56;;;;;;;10.85;1.52;;;30.70;67.80;;;;;;5046295;28;20033;-71
2024/01/06 03:07:23;;;;;;;11.88;1.92;;;30.70;66.00;;;;;;5046039;28;20072;-72
2024/01/06 03:09:50;;;;;;;8.07;1.33;;;30.50;67.80;;;;;;5049326;28;20053;-72
2024/01/06 03:12:18;;;;;;;8.35;1.40;;;30.40;65.70;;;;;;5057038;28;20029;-73
2024/01/06 03:14:45;;;;;;;6.40;1.50;;;30.40;65.40;;;;;;5048244;28;20120;-72
2024/01/06 03:17:13;;;;;;;5.72;1.17;;;31.20;65.30;;;;;;5049554;28;20513;-71
2024/01/06 03:19:40;;;;;;;9.48;1.35;;;31.60;64.70;;;;;;5049177;28;20028;-73
2024/01/06 03:22:08;;;;;;;7.78;1.70;;;30.80;63.50;;;;;;5052771;28;20021;-73
2024/01/06 03:24:35;;;;;;;6.63;1.67;;;30.50;65.80;;;;;;5052367;28;20099;-72
2024/01/06 03:27:02;;;;;;;6.28;0.70;;;30.10;67.20;;;;;;5054990;28;20033;-72
2024/01/06 03:29:30;;;;;;;5.88;1.25;;;29.80;67.50;;;;;;5051975;28;20024;-70
2024/01/06 03:31:57;;;;;;;7.28;1.13;;;29.70;66.80;;;;;;5050668;28;20142;-73
2024/01/06 03:34:24;;;;;;;9.35;1.60;;;29.60;67.90;;;;;;5053485;28;20083;-71
2024/01/06 03:36:52;;;;;;;7.70;1.80;;;29.50;67.60;;;;;;5049780;28;20083;-71
2024/01/06 03:39:19;;;;;;;8.18;1.23;;;29.50;67.20;;;;;;5052833;28;20501;-74
2024/01/06 03:41:47;;;;;;;7.03;1.15;;;29.30;66.30;;;;;;5056216;28;20162;-72
2024/01/06 03:44:14;;;;;;;10.30;1.60;;;29.20;66.70;;;;;;5054755;28;20033;-72
2024/01/06 03:46:41;;;;;;;4.93;0.90;;;29.20;67.10;;;;;;5053169;28;20048;-73
2024/01/06 03:49:09;;;;;;;9.70;1.50;;;28.70;66.10;;;;;;5053527;28;20373;-73
2024/01/06 03:51:40;;;;;;;6.72;1.20;;;28.50;69.00;;;;;;5056486;28;20032;-71
2024/01/06 03:54:07;;;;;;;5.22;0.90;;;28.50;67.70;;;;;;5050113;28;20149;-71
2024/01/06 03:56:34;;;;;;;6.93;1.02;;;28.60;68.60;;;;;;5052827;28;20021;-72
2024/01/06 03:59:02;;;;;;;4.32;1.13;;;28.70;67.80;;;;;;5055129;28;20378;-72
2024/01/06 04:01:31;;;;;;;8.05;1.10;;;28.40;67.60;;;;;;5054647;28;20028;-72
2024/01/06 04:03:58;;;;;;;3.50;1.17;;;28.50;68.00;;;;;;5045730;28;20048;-72
2024/01/06 04:06:26;;;;;;;9.55;1.73;;;28.60;68.20;;;;;;5050563;28;20068;-71
2024/01/06 04:08:54;;;;;;;8.43;1.50;;;28.50;67.60;;;;;;5030611;28;20035;-72
2024/01/06 04:11:22;;;;;;;9.63;1.42;;;28.70;66.30;;;;;;5031406;28;20475;-73
2024/01/06 04:13:49;;;;;;;4.75;1.05;;;28.80;67.70;;;;;;5049831;28;20028;-71
2024/01/06 04:16:17;;;;;;;4.75;1.00;;;28.80;67.50;;;;;;5053288;28;20102;-71
2024/01/06 04:18:44;;;;;;;3.92;0.88;;;28.80;67.90;;;;;;5050710;28;20033;-72
2024/01/06 04:21:12;;;;;;;6.60;1.13;;;28.70;67.50;;;;;;5049195;28;20041;-71
2024/01/06 04:23:39;;;;;;;7.68;0.90;;;28.60;68.20;;;;;;5045492;28;20116;-71
2024/01/06 04:26:06;;;;;;;6.30;1.17;;;28.60;67.80;;;;;;5039741;28;20402;-72
2024/01/06 04:28:34;;;;;;;7.85;1.10;;;28.70;67.70;;;;;;5045561;28;20025;-71
2024/01/06 04:31:01;;;;;;;12.00;1.17;;;28.80;67.10;;;;;;5044465;28;20069;-72
2024/01/06 04:33:28;;;;;;;6.75;1.30;;;28.90;67.30;;;;;;5046015;28;20377;-72
2024/01/06 04:35:56;;;;;;;4.50;0.85;;;29.10;65.30;;;;;;5053862;28;20032;-71
2024/01/06 04:38:23;;;;;;;6.03;1.15;;;28.80;67.20;;;;;;5047739;28;20029;-72
2024/01/06 04:40:50;;;;;;;6.28;1.00;;;28.60;67.70;;;;;;5050269;28;20466;-72
2024/01/06 04:43:21;;;;;;;3.00;0.68;;;28.50;67.90;;;;;;5053017;28;20029;-72
2024/01/06 04:45:50;;;;;;;8.88;1.30;;;28.20;67.00;;;;;;5051185;28;20167;-72
2024/01/06 04:48:17;;;;;;;6.22;1.63;;;28.00;68.20;;;;;;5056406;28;20120;-73
2024/01/06 04:50:44;;;;;;;7.10;1.00;;;27.90;68.00;;;;;;5052144;28;20029;-72
2024/01/06 04:53:12;;;;;;;7.30;1.30;;;28.00;68.10;;;;;;5053834;28;20029;-72
2024/01/06 04:55:39;;;;;;;5.18;0.93;;;28.20;68.90;;;;;;5045251;28;20434;-72
2024/01/06 04:58:06;;;;;;;7.53;1.23;;;28.30;68.70;;;;;;5054854;28;20018;-72
2024/01/06 05:00:36;;;;;;;8.30;1.70;;;28.40;68.20;;;;;;5054718;28;20143;-73
2024/01/06 05:03:04;;;;;;;4.57;0.90;;;28.30;67.90;;;;;;5060209;28;20025;-73
2024/01/06 05:05:31;;;;;;;7.07;1.30;;;28.30;68.80;;;;;;5055540;28;20029;-72
2024/01/06 05:07:59;;;;;;;6.53;1.00;;;28.40;68.80;;;;;;5057363;28;20040;-72
2024/01/06 05:10:26;;;;;;;7.32;1.30;;;28.30;68.40;;;;;;5059080;28;20037;-72
2024/01/06 05:12:54;;;;;;;11.48;1.70;;;28.30;68.60;;;;;;5052146;28;20025;-72
2024/01/06 05:15:21;;;;;;;6.18;1.30;;;28.30;69.40;;;;;;5060372;28;20105;-72
2024/01/06 05:17:48;;;;;;;5.68;1.50;;;28.20;69.50;;;;;;5055984;28;20363;-72
2024/01/06 05:20:16;;;;;;;6.40;1.08;;;28.20;69.50;;;;;;5055763;28;20028;-72
2024/01/06 05:22:43;;;;;;;7.30;1.15;;;28.10;69.90;;;;;;5055977;28;20012;-72
2024/01/06 05:25:10;;;;;;;4.70;1.05;;;28.10;69.30;;;;;;5057168;28;20021;-72
2024/01/06 05:27:38;;;;;;;8.73;1.08;;;28.10;70.20;;;;;;5056814;28;20032;-71
2024/01/06 05:30:06;;;;;;;10.45;1.52;;;28.20;69.70;;;;;;5054375;28;20025;-71
2024/01/06 05:32:33;;;;;;;9.13;1.83;;;28.10;70.00;;;;;;5055719;28;20033;-73
2024/01/06 05:35:00;;;;;;;3.75;1.00;;;28.00;69.90;;;;;;5053155;28;20390;-72
2024/01/06 05:37:28;;;;;;;6.93;1.15;;;27.90;70.90;;;;;;5053288;28;20025;-72
2024/01/06 05:39:55;;;;;;;13.27;1.10;;;27.40;71.10;;;;;;5059141;28;20024;-72
2024/01/06 05:42:22;;;;;;;8.05;1.50;;;27.50;72.50;;;;;;5047991;28;20032;-72
2024/01/06 05:44:51;;;;;;;4.88;1.42;;;27.60;72.90;;;;;;5049416;28;20064;-73
2024/01/06 05:47:18;;;;;;;14.80;1.70;;;27.80;72.60;;;;;;5039335;28;20059;-72
2024/01/06 05:49:45;;;;;;;12.65;1.40;;;28.00;72.30;;;;;;5050725;28;20041;-73
2024/01/06 05:52:13;;;;;;;9.60;1.50;;;28.00;72.20;;;;;;5055735;28;20366;-72
2024/01/06 05:54:43;;;;;;;7.38;1.10;;;28.00;73.60;;;;;;5052822;28;20021;-72
2024/01/06 05:57:11;;;;;;;9.00;1.20;;;28.40;74.00;;;;;;5052505;28;20074;-72
2024/01/06 05:59:40;;;;;;;11.10;1.60;;;28.70;73.50;;;;;;5055123;28;20147;-73
2024/01/06 06:02:07;;;;;;;4.13;0.98;;;28.50;72.20;;;;;;5046756;28;20028;-73
2024/01/06 06:04:35;;;;;;;6.35;1.42;;;28.40;72.90;;;;;;5050639;28;20551;-74
2024/01/06 06:07:02;;;;;;;7.63;1.40;;;28.30;72.80;;;;;;5049100;28;20051;-73
2024/01/06 06:09:30;;;;;;;8.55;1.15;;;28.30;73.10;;;;;;5046487;28;20159;-73
2024/01/06 06:11:57;;;;;;;6.43;1.13;;;28.50;72.80;;;;;;5047243;28;20025;-73
2024/01/06 06:14:25;;;;;;;9.45;1.67;;;28.70;72.30;;;;;;5048202;28;20021;-73
2024/01/06 06:16:52;;;;;;;8.40;1.45;;;28.90;71.70;;;;;;5046902;28;20029;-72
2024/01/06 06:19:20;;;;;;;8.02;1.42;;;28.50;71.70;;;;;;5056875;28;20016;-72
2024/01/06 06:21:47;;;;;;;8.18;1.45;;;28.20;72.40;;;;;;5051148;28;20025;-72
2024/01/06 06:24:14;;;;;;;5.70;1.42;;;27.60;73.00;;;;;;5053233;28;20032;-72
2024/01/06 06:26:42;;;;;;;9.95;1.58;;;27.20;73.90;;;;;;5050138;28;20099;-70
2024/01/06 06:29:09;;;;;;;5.78;1.30;;;27.10;74.60;;;;;;5051655;28;20024;-72
2024/01/06 06:31:36;;;;;;;9.45;1.50;;;27.20;75.20;;;;;;5055391;28;20016;-72
2024/01/06 06:34:04;;;;;;;9.30;1.23;;;27.40;75.30;;;;;;5053971;28;20025;-73
2024/01/06 06:36:31;;;;;;;9.02;1.20;;;27.40;74.90;;;;;;5052144;28;20086;-72
2024/01/06 06:38:58;;;;;;;6.95;1.20;;;27.40;75.10;;;;;;5059944;28;20061;-72
2024/01/06 06:41:26;;;;;;;8.07;1.20;;;27.20;75.50;;;;;;5055937;28;20025;-71
2024/01/06 06:43:53;;;;;;;5.68;0.85;;;27.20;75.80;;;;;;5048313;28;20033;-72
2024/01/06 06:46:21;;;;;;;8.50;1.25;;;27.00;75.80;;;;;;5057537;28;20673;-72
2024/01/06 06:48:48;;;;;;;12.00;1.63;;;27.00;75.60;;;;;;5052103;28;20111;-72
2024/01/06 06:51:15;;;;;;;7.72;1.15;;;27.00;76.10;;;;;;5053149;28;20024;-71
2024/01/06 06:53:43;;;;;;;14.65;1.85;;;26.70;76.00;;;;;;5053779;28;20025;-72
2024/01/06 06:56:10;;;;;;;11.02;1.70;;;26.70;76.10;;;;;;5053176;28;20025;-72
2024/01/06 06:58:38;;;;;;;12.57;2.30;;;26.70;76.00;;;;;;5051362;28;20017;-72
2024/01/06 07:01:05;;;;;;;10.13;1.50;;;26.70;76.70;;;;;;5056272;28;20028;-72
2024/01/06 07:03:32;;;;;;;9.85;1.52;;;26.80;76.60;;;;;;5053152;28;20698;-72
2024/01/06 07:06:00;;;;;;;8.68;2.45;;;26.90;77.30;;;;;;5032520;28;20407;-72
2024/01/06 07:08:27;;;;;;;19.20;2.30;;;27.00;77.10;;;;;;5052354;28;20017;-72
2024/01/06 07:10:54;;;;;;;6.25;1.55;;;27.10;76.60;;;;;;5057807;28;20461;-72
2024/01/06 07:13:22;;;;;;;9.18;1.83;;;27.20;76.20;;;;;;5034189;28;20033;-73
2024/01/06 07:15:49;;;;;;;10.00;1.88;;;27.10;76.30;;;;;;5054940;28;20025;-72
2024/01/06 07:18:18;;;;;;;8.20;1.60;;;27.10;76.30;;;;;;5054857;28;20040;-72
2024/01/06 07:20:45;;;;;;;7.50;1.48;;;27.20;77.20;;;;;;5050248;28;20035;-73
2024/01/06 07:23:12;;;;;;;9.02;1.48;;;27.20;76.80;;;;;;5053443;28;20024;-74
2024/01/06 07:25:40;;;;;;;9.90;1.30;;;27.00;77.30;;;;;;5053193;28;20028;-72
2024/01/06 07:28:08;;;;;;;11.48;1.70;;;27.00;77.30;;;;;;5054179;28;20044;-72
2024/01/06 07:30:35;;;;;;;17.10;2.67;;;27.00;77.00;;;;;;5055537;28;20107;-72
2024/01/06 07:33:03;;;;;;;22.50;1.88;;;26.80;77.20;;;;;;5048206;28;20362;-72
2024/01/06 07:35:30;;;;;;;9.98;1.50;;;26.40;77.90;;;;;;5046502;28;20021;-72
2024/01/06 07:37:57;;;;;;;9.00;1.63;;;26.40;78.60;;;;;;5049290;28;20021;-72
2024/01/06 07:40:25;;;;;;;6.47;1.15;;;26.40;78.30;;;;;;5051858;28;20159;-69
2024/01/06 07:42:52;;;;;;;12.02;1.33;;;26.50;79.10;;;;;;5049117;28;20349;-68
2024/01/06 07:45:20;;;;;;;7.55;1.85;;;26.40;78.90;;;;;;5050091;28;20025;-68
2024/01/06 07:47:47;;;;;;;11.15;1.50;;;26.20;79.20;;;;;;5041869;28;20052;-68
2024/01/06 07:50:14;;;;;;;9.38;1.98;;;26.10;79.50;;;;;;5047491;28;20014;-68
2024/01/06 07:52:42;;;;;;;12.65;1.58;;;25.90;79.80;;;;;;5047806;28;20137;-67
2024/01/06 07:55:09;;;;;;;10.48;1.75;;;25.90;80.30;;;;;;5044003;28;20025;-68
2024/01/06 07:57:36;;;;;;;13.02;1.70;;;25.70;80.50;;;;;;5047575;28;20057;-68
2024/01/06 08:00:04;;;;;;;12.07;1.98;;;25.70;81.10;;;;;;5048627;28;20102;-68
2024/01/06 08:02:31;;;;;;;21.83;3.88;;;25.70;81.30;;;;;;5048559;28;20022;-68
2024/01/06 08:04:59;;;;;;;19.02;3.60;;;25.80;81.30;;;;;;5053530;28;20032;-67
2024/01/06 08:07:26;;;;;;;29.27;5.00;;;25.80;81.50;;;;;;5038558;28;20036;-67
2024/01/06 08:09:54;;;;;;;11.85;2.05;;;25.70;82.20;;;;;;5046680;28;20592;-67
2024/01/06 08:12:21;;;;;;;9.00;1.60;;;25.70;82.60;;;;;;5031882;28;20370;-67
2024/01/06 08:14:48;;;;;;;11.35;1.90;;;25.60;82.70;;;;;;5044526;28;20012;-68
2024/01/06 08:17:15;;;;;;;7.60;1.48;;;25.50;83.20;;;;;;5048849;28;20028;-68
2024/01/06 08:19:43;;;;;;;9.68;1.88;;;25.30;82.30;;;;;;5059117;28;20021;-68
2024/01/06 08:22:10;;;;;;;12.20;1.58;;;25.10;83.20;;;;;;5055195;28;20024;-68
2024/01/06 08:24:37;;;;;;;6.47;1.20;;;25.00;83.40;;;;;;5052074;28;20021;-67
2024/01/06 08:27:05;;;;;;;9.35;1.73;;;24.90;83.30;;;;;;5056023;28;20411;-67
2024/01/06 08:29:32;;;;;;;13.23;2.25;;;24.90;82.90;;;;;;5057184;28;20446;-67
2024/01/06 08:32:00;;;;;;;8.82;1.63;;;24.80;84.40;;;;;;5062165;28;20525;-67
2024/01/06 08:34:27;;;;;;;9.80;1.50;;;24.90;84.60;;;;;;5056583;28;20024;-67
2024/01/06 08:36:54;;;;;;;12.02;2.28;;;24.90;84.60;;;;;;5054878;28;20043;-67
2024/01/06 08:39:22;;;;;;;6.47;1.83;;;24.80;85.10;;;;;;5058976;28;20045;-67
2024/01/06 08:41:49;;;;;;;12.18;1.48;;;24.60;85.90;;;;;;5056795;28;20051;-67
2024/01/06 08:44:17;;;;;;;7.75;1.60;;;24.60;86.50;;;;;;5055011;28;20493;-67
2024/01/06 08:46:44;;;;;;;10.52;1.88;;;24.70;86.70;;;;;;5057936;28;20079;-66
2024/01/06 08:49:11;;;;;;;10.45;1.75;;;24.70;87.10;;;;;;5055315;28;20542;-67
2024/01/06 08:51:39;;;;;;;12.43;2.00;;;24.70;87.30;;;;;;5053424;28;20111;-67
2024/01/06 08:54:06;;;;;;;12.85;2.28;;;24.70;88.00;;;;;;5054441;28;20021;-69
2024/01/06 08:56:37;;;;;;;13.20;1.58;;;24.70;87.60;;;;;;5060541;28;20454;-68
2024/01/06 08:59:05;;;;;;;8.98;1.38;;;24.60;88.30;;;;;;5057297;28;20449;-69
2024/01/06 09:01:35;;;;;;;6.18;1.48;;;24.50;89.10;;;;;;5057453;28;20028;-69
2024/01/06 09:04:03;;;;;;;10.18;1.67;;;24.40;89.30;;;;;;5057470;28;20079;-69
2024/01/06 09:06:31;;;;;;;8.38;2.03;;;24.30;89.90;;;;;;5055037;28;20082;-69
2024/01/06 09:08:58;;;;;;;11.13;1.63;;;24.30;90.10;;;;;;5056954;28;20021;-69
2024/01/06 09:11:25;;;;;;;11.75;1.80;;;24.10;90.60;;;;;;5033311;28;20449;-68
2024/01/06 09:13:53;;;;;;;12.70;1.67;;;24.10;90.60;;;;;;5052621;28;20379;-69
2024/01/06 09:16:20;;;;;;;13.20;1.50;;;24.20;90.60;;;;;;5058193;28;20024;-69
2024/01/06 09:18:49;;;;;;;10.30;1.85;;;24.10;91.00;;;;;;5049493;28;20108;-69
2024/01/06 09:21:17;;;;;;;14.73;1.75;;;24.00;91.10;;;;;;5052745;28;20139;-69
2024/01/06 09:23:44;;;;;;;11.32;1.67;;;23.80;91.20;;;;;;5051545;28;20048;-68
2024/01/06 09:26:12;;;;;;;12.43;2.65;;;23.80;91.50;;;;;;5050552;28;20040;-69
2024/01/06 09:28:39;;;;;;;15.57;1.73;;;23.80;91.60;;;;;;5059423;28;20439;-69
2024/01/06 09:31:06;;;;;;;10.63;1.75;;;23.80;91.60;;;;;;5047287;28;20017;-67
2024/01/06 09:33:34;;;;;;;17.10;1.63;;;23.80;91.60;;;;;;5047672;28;20114;-69
2024/01/06 09:36:02;;;;;;;14.80;1.65;;;23.80;91.80;;;;;;5048027;28;20033;-68
2024/01/06 09:38:29;;;;;;;8.18;1.98;;;23.80;92.10;;;;;;5050965;28;20036;-69
2024/01/06 09:40:58;;;;;;;16.25;2.53;;;23.90;91.80;;;;;;5051668;28;20024;-69
2024/01/06 09:43:27;;;;;;;11.05;1.98;;;23.80;92.00;;;;;;5046712;28;20024;-69
2024/01/06 09:46:23;;;;;;;14.88;1.92;;;23.80;92.00;;;;;;5054710;28;20029;-68
2024/01/06 09:48:53;;;;;;;10.63;1.23;;;23.70;92.10;;;;;;5036298;28;20076;-69
2024/01/06 09:51:21;;;;;;;12.63;2.25;;;23.60;92.50;;;;;;5045575;28;20501;-69
2024/01/06 09:53:57;;;;;;;16.42;1.90;;;23.50;93.00;;;;;;5054017;28;20035;-69
2024/01/06 09:56:29;;;;;;;10.05;1.70;;;23.50;93.10;;;;;;5057346;28;20036;-69
2024/01/06 09:58:56;;;;;;;14.10;2.70;;;23.40;93.00;;;;;;5055451;28;20051;-69
2024/01/06 10:01:24;;;;;;;10.63;1.80;;;23.40;93.10;;;;;;5059082;28;20374;-68
2024/01/06 10:03:51;;;;;;;8.57;2.13;;;23.40;93.20;;;;;;5050250;28;20494;-69
2024/01/06 10:06:20;;;;;;;8.73;2.22;;;23.40;93.30;;;;;;5051919;28;20577;-66
2024/01/06 10:08:52;;;;;;;12.80;2.10;;;23.30;93.30;;;;;;5054911;28;20028;-69
2024/01/06 10:11:26;;;;;;;7.93;1.65;;;23.30;93.30;;;;;;5053463;28;20596;-68
2024/01/06 10:13:54;;;;;;;9.60;2.08;;;23.30;93.50;;;;;;5053658;28;20031;-68
2024/01/06 10:16:22;;;;;;;8.68;2.50;;;23.10;93.70;;;;;;5056240;28;20025;-68
2024/01/06 10:18:49;;;;;;;6.03;1.15;;;23.20;93.70;;;;;;5053850;28;20116;-68
2024/01/06 10:21:17;;;;;;;14.50;2.08;;;23.30;93.80;;;;;;5055388;28;20381;-69
2024/01/06 10:23:45;;;;;;;11.07;1.85;;;23.30;93.80;;;;;;5053099;28;20103;-68
2024/01/06 10:26:17;;;;;;;6.85;1.60;;;23.00;94.10;;;;;;5052919;28;20036;-68
2024/01/06 10:28:45;;;;;;;15.63;2.03;;;23.10;94.20;;;;;;5052886;28;20028;-68
2024/01/06 10:31:13;;;;;;;15.45;2.13;;;23.10;94.20;;;;;;5056444;28;20036;-66
2024/01/06 10:33:41;;;;;;;18.27;2.67;;;23.10;94.30;;;;;;5052110;28;20021;-68
2024/01/06 10:36:09;;;;;;;10.15;1.80;;;23.00;94.40;;;;;;5053528;28;20024;-69
2024/01/06 10:38:37;;;;;;;9.50;2.33;;;23.00;94.50;;;;;;5054388;28;20522;-69
2024/01/06 10:41:09;;;;;;;14.85;2.60;;;23.10;94.60;;;;;;5053561;28;20048;-69
2024/01/06 10:43:43;;;;;;;13.40;2.20;;;23.10;94.50;;;;;;5055351;28;20052;-69
2024/01/06 10:46:11;;;;;;;12.98;2.20;;;23.20;94.40;;;;;;5055443;28;20021;-69
2024/01/06 10:48:42;;;;;;;12.95;2.15;;;23.00;94.90;;;;;;5049567;28;20047;-69
2024/01/06 10:51:16;;;;;;;16.85;2.63;;;23.10;94.60;;;;;;5052625;28;20032;-67
2024/01/06 10:53:44;;;;;;;15.02;2.70;;;23.00;94.70;;;;;;5054133;28;20553;-67
2024/01/06 10:56:12;;;;;;;13.75;1.55;;;23.00;94.90;;;;;;5050296;28;20422;-68
2024/01/06 10:58:50;;;;;;;17.27;2.00;;;23.00;95.20;;;;;;5052860;28;20032;-69
2024/01/06 11:01:22;;;;;;;17.67;2.65;;;23.10;95.00;;;;;;5051895;28;20032;-68
2024/01/06 11:03:50;;;;;;;13.38;2.90;;;22.90;95.30;;;;;;5047444;28;20109;-68
2024/01/06 11:06:19;;;;;;;16.13;2.63;;;23.00;95.20;;;;;;5056144;28;20127;-69
2024/01/06 11:09:12;;;;;;;10.77;2.00;;;22.80;95.60;;;;;;5045403;28;20045;-68
2024/01/06 11:11:40;;;;;;;8.93;1.80;;;22.90;95.50;;;;;;5050245;28;20531;-67
2024/01/06 11:14:33;;;;;;;18.05;2.03;;;22.90;95.60;;;;;;5050798;28;20402;-67
2024/01/06 11:17:00;;;;;;;21.90;2.08;;;22.80;95.50;;;;;;5051952;28;20551;-68
2024/01/06 11:19:37;;;;;;;15.05;2.40;;;22.70;96.00;;;;;;5047757;28;20071;-67
2024/01/06 11:22:30;;;;;;;12.68;2.13;;;22.60;95.90;;;;;;5040231;28;20052;-67
2024/01/06 11:25:04;;;;;;;15.23;2.05;;;22.80;95.90;;;;;;5049214;28;20470;-68
2024/01/06 11:27:32;;;;;;;13.93;2.03;;;22.70;96.20;;;;;;5050520;28;20041;-67
2024/01/06 11:30:00;;;;;;;11.88;2.00;;;22.50;96.30;;;;;;5043439;28;20033;-69
2024/01/06 11:32:36;;;;;;;14.90;2.03;;;22.40;96.70;;;;;;5057854;28;20025;-70
2024/01/06 11:35:10;;;;;;;8.88;1.70;;;22.30;97.10;;;;;;5043888;28;20028;-71
2024/01/06 11:37:41;;;;;;;16.63;2.83;;;22.30;97.00;;;;;;5046641;28;20040;-69
2024/01/06 11:40:23;;;;;;;10.82;2.22;;;22.10;97.30;;;;;;5055863;28;20036;-71
2024/01/06 11:43:10;;;;;;;19.60;2.30;;;22.20;97.50;;;;;;5045688;28;20110;-71
2024/01/06 11:45:44;;;;;;;11.77;2.03;;;22.20;97.60;;;;;;5053107;28;20121;-71
2024/01/06 11:48:12;;;;;;;14.27;2.28;;;22.00;97.80;;;;;;5049960;28;20037;-71
2024/01/06 11:50:41;;;;;;;13.27;1.88;;;21.80;97.80;;;;;;5053890;28;20181;-71
2024/01/06 11:53:12;;;;;;;12.07;2.35;;;21.90;98.00;;;;;;5056257;28;20097;-71
2024/01/06 11:55:42;;;;;;;20.75;3.22;;;21.70;98.30;;;;;;5053090;28;20025;-71
2024/01/06 11:58:10;;;;;;;16.98;3.17;;;21.50;98.50;;;;;;5051753;28;20039;-71
2024/01/06 12:00:39;;;;;;;20.85;3.20;;;21.40;98.80;;;;;;5053804;28;20791;-71
2024/01/06 12:03:06;;;;;;;14.77;2.30;;;21.40;99.00;;;;;;5054154;28;20107;-71
2024/01/06 12:05:33;;;;;;;12.75;2.30;;;21.30;99.20;;;;;;5051534;28;20028;-71
2024/01/06 12:08:06;;;;;;;21.13;2.42;;;21.40;99.50;;;;;;5036537;28;20073;-71
2024/01/06 12:10:33;;;;;;;13.38;2.25;;;21.40;99.20;;;;;;5056201;28;20385;-71
2024/01/06 12:13:08;;;;;;;12.90;2.35;;;21.40;99.40;;;;;;5055898;28;20025;-71
2024/01/06 12:15:39;;;;;;;15.27;2.58;;;21.60;99.30;;;;;;5053524;28;20479;-71
2024/01/06 12:18:07;;;;;;;16.88;2.30;;;21.70;98.90;;;;;;5059089;28;20108;-71
2024/01/06 12:20:34;;;;;;;15.30;1.88;;;21.50;99.00;;;;;;5055632;28;20028;-72
2024/01/06 12:23:05;;;;;;;12.43;2.30;;;21.40;99.20;;;;;;5058779;28;20504;-71
2024/01/06 12:25:35;;;;;;;15.18;2.55;;;21.40;99.20;;;;;;5059974;28;20033;-72
2024/01/06 12:28:02;;;;;;;9.55;2.10;;;21.40;99.50;;;;;;5051810;28;20041;-71
2024/01/06 12:30:31;;;;;;;16.92;3.50;;;21.30;99.50;;;;;;5052939;28;20028;-71
2024/01/06 12:33:00;;;;;;;10.00;2.53;;;21.20;99.50;;;;;;5062199;28;20078;-71
2024/01/06 12:35:28;;;;;;;14.40;3.47;;;21.20;99.70;;;;;;5050999;28;20020;-71
2024/01/06 12:37:55;;;;;;;17.52;3.00;;;21.10;99.70;;;;;;5061782;28;20036;-71
2024/01/06 12:40:23;;;;;;;12.52;2.45;;;21.00;99.90;;;;;;5035947;28;20031;-71
2024/01/06 12:42:50;;;;;;;12.73;2.40;;;20.90;99.90;;;;;;5065701;28;20108;-71
2024/01/06 12:45:18;;;;;;;16.45;2.65;;;20.80;99.90;;;;;;5054456;28;20021;-72
2024/01/06 12:47:45;;;;;;;11.45;2.00;;;20.70;99.90;;;;;;5058809;28;20131;-71